sensor_id;sensor_type;location;lat;lon;timestamp;P1;durP1;ratioP1;P2;durP2;ratioP2
23470;SDS011;11908;50.806;4.424;2023-02-22T00:00:58;94.80;;;27.65;;
23470;SDS011;11908;50.806;4.424;2023-02-22T00:03:31;72.88;;;27.30;;
23470;SDS011;11908;50.806;4.424;2023-02-22T00:05:58;176.77;;;28.70;;
23470;SDS011;11908;50.806;4.424;2023-02-22T00:08:33;256.27;;;32.53;;
23470;SDS011;11908;50.806;4.424;2023-02-22T00:11:01;126.85;;;27.75;;
23470;SDS011;11908;50.806;4.424;2023-02-22T00:13:32;67.20;;;27.50;;
23470;SDS011;11908;50.806;4.424;2023-02-22T00:15:58;334.27;;;36.42;;
23470;SDS011;11908;50.806;4.424;2023-02-22T00:18:25;53.78;;;25.98;;
23470;SDS011;11908;50.806;4.424;2023-02-22T00:20:52;68.85;;;25.30;;
23470;SDS011;11908;50.806;4.424;2023-02-22T00:23:26;117.47;;;29.27;;
23470;SDS011;11908;50.806;4.424;2023-02-22T00:25:53;62.70;;;25.25;;
23470;SDS011;11908;50.806;4.424;2023-02-22T00:28:20;73.70;;;25.98;;
23470;SDS011;11908;50.806;4.424;2023-02-22T00:30:48;55.40;;;24.48;;
23470;SDS011;11908;50.806;4.424;2023-02-22T00:33:14;66.93;;;24.92;;
23470;SDS011;11908;50.806;4.424;2023-02-22T00:35:40;79.63;;;25.88;;
23470;SDS011;11908;50.806;4.424;2023-02-22T00:38:09;61.35;;;24.25;;
23470;SDS011;11908;50.806;4.424;2023-02-22T00:40:36;87.70;;;25.08;;
23470;SDS011;11908;50.806;4.424;2023-02-22T00:43:03;61.63;;;23.67;;
23470;SDS011;11908;50.806;4.424;2023-02-22T00:45:29;156.10;;;24.65;;
23470;SDS011;11908;50.806;4.424;2023-02-22T00:47:57;101.25;;;23.98;;
23470;SDS011;11908;50.806;4.424;2023-02-22T00:50:24;176.55;;;26.42;;
23470;SDS011;11908;50.806;4.424;2023-02-22T00:52:51;129.25;;;25.38;;
23470;SDS011;11908;50.806;4.424;2023-02-22T00:55:18;283.90;;;30.00;;
23470;SDS011;11908;50.806;4.424;2023-02-22T00:57:46;90.95;;;23.13;;
23470;SDS011;11908;50.806;4.424;2023-02-22T01:00:16;57.50;;;23.08;;
23470;SDS011;11908;50.806;4.424;2023-02-22T01:02:44;99.55;;;24.58;;
23470;SDS011;11908;50.806;4.424;2023-02-22T01:05:14;69.47;;;23.42;;
23470;SDS011;11908;50.806;4.424;2023-02-22T01:07:42;168.70;;;25.85;;
23470;SDS011;11908;50.806;4.424;2023-02-22T01:10:09;66.43;;;22.65;;
23470;SDS011;11908;50.806;4.424;2023-02-22T01:12:35;77.20;;;24.17;;
23470;SDS011;11908;50.806;4.424;2023-02-22T01:15:02;72.57;;;23.38;;
23470;SDS011;11908;50.806;4.424;2023-02-22T01:17:29;134.23;;;25.50;;
23470;SDS011;11908;50.806;4.424;2023-02-22T01:19:55;83.82;;;24.00;;
23470;SDS011;11908;50.806;4.424;2023-02-22T01:22:21;57.78;;;22.73;;
23470;SDS011;11908;50.806;4.424;2023-02-22T01:24:47;70.57;;;21.52;;
23470;SDS011;11908;50.806;4.424;2023-02-22T01:27:13;57.20;;;22.20;;
23470;SDS011;11908;50.806;4.424;2023-02-22T01:29:39;61.25;;;21.30;;
23470;SDS011;11908;50.806;4.424;2023-02-22T01:32:05;62.50;;;21.42;;
23470;SDS011;11908;50.806;4.424;2023-02-22T01:34:32;47.45;;;20.38;;
23470;SDS011;11908;50.806;4.424;2023-02-22T01:36:58;42.42;;;20.98;;
23470;SDS011;11908;50.806;4.424;2023-02-22T01:39:25;63.55;;;21.98;;
23470;SDS011;11908;50.806;4.424;2023-02-22T01:41:51;61.30;;;21.73;;
23470;SDS011;11908;50.806;4.424;2023-02-22T01:44:31;137.95;;;25.40;;
23470;SDS011;11908;50.806;4.424;2023-02-22T01:46:59;70.95;;;21.88;;
23470;SDS011;11908;50.806;4.424;2023-02-22T01:49:28;35.00;;;20.17;;
23470;SDS011;11908;50.806;4.424;2023-02-22T01:52:16;49.90;;;21.10;;
23470;SDS011;11908;50.806;4.424;2023-02-22T01:54:46;36.30;;;21.38;;
23470;SDS011;11908;50.806;4.424;2023-02-22T01:57:20;40.22;;;19.58;;
23470;SDS011;11908;50.806;4.424;2023-02-22T02:00:01;31.45;;;19.70;;
23470;SDS011;11908;50.806;4.424;2023-02-22T02:02:34;28.13;;;18.88;;
23470;SDS011;11908;50.806;4.424;2023-02-22T02:05:05;27.92;;;18.67;;
23470;SDS011;11908;50.806;4.424;2023-02-22T02:07:32;25.70;;;17.90;;
23470;SDS011;11908;50.806;4.424;2023-02-22T02:10:01;25.58;;;17.30;;
23470;SDS011;11908;50.806;4.424;2023-02-22T02:12:33;26.42;;;17.77;;
23470;SDS011;11908;50.806;4.424;2023-02-22T02:17:53;26.58;;;17.92;;
23470;SDS011;11908;50.806;4.424;2023-02-22T02:20:41;25.80;;;17.98;;
23470;SDS011;11908;50.806;4.424;2023-02-22T02:40:03;24.60;;;15.77;;
23470;SDS011;11908;50.806;4.424;2023-02-22T02:48:18;23.58;;;17.15;;
23470;SDS011;11908;50.806;4.424;2023-02-22T02:50:48;26.08;;;17.92;;
23470;SDS011;11908;50.806;4.424;2023-02-22T02:53:17;24.67;;;16.70;;
23470;SDS011;11908;50.806;4.424;2023-02-22T02:55:49;23.15;;;16.83;;
23470;SDS011;11908;50.806;4.424;2023-02-22T02:58:19;22.55;;;15.60;;
23470;SDS011;11908;50.806;4.424;2023-02-22T03:00:47;22.88;;;16.35;;
23470;SDS011;11908;50.806;4.424;2023-02-22T03:12:12;24.25;;;16.88;;
23470;SDS011;11908;50.806;4.424;2023-02-22T03:17:26;22.73;;;16.27;;
23470;SDS011;11908;50.806;4.424;2023-02-22T03:20:21;22.30;;;16.58;;
23470;SDS011;11908;50.806;4.424;2023-02-22T03:23:12;23.05;;;16.50;;
23470;SDS011;11908;50.806;4.424;2023-02-22T03:25:45;23.92;;;16.80;;
23470;SDS011;11908;50.806;4.424;2023-02-22T03:28:16;22.67;;;16.65;;
23470;SDS011;11908;50.806;4.424;2023-02-22T03:30:44;23.70;;;16.10;;
23470;SDS011;11908;50.806;4.424;2023-02-22T03:33:18;27.35;;;17.52;;
23470;SDS011;11908;50.806;4.424;2023-02-22T03:36:00;23.58;;;16.88;;
23470;SDS011;11908;50.806;4.424;2023-02-22T03:38:30;24.10;;;16.70;;
23470;SDS011;11908;50.806;4.424;2023-02-22T03:41:01;25.75;;;17.13;;
23470;SDS011;11908;50.806;4.424;2023-02-22T03:43:30;24.17;;;17.25;;
23470;SDS011;11908;50.806;4.424;2023-02-22T03:46:02;25.92;;;17.15;;
23470;SDS011;11908;50.806;4.424;2023-02-22T03:51:12;24.23;;;16.50;;
23470;SDS011;11908;50.806;4.424;2023-02-22T03:53:39;22.52;;;16.50;;
23470;SDS011;11908;50.806;4.424;2023-02-22T03:56:06;22.63;;;16.05;;
23470;SDS011;11908;50.806;4.424;2023-02-22T03:58:35;22.98;;;16.30;;
23470;SDS011;11908;50.806;4.424;2023-02-22T04:01:04;23.33;;;16.50;;
23470;SDS011;11908;50.806;4.424;2023-02-22T04:03:30;22.17;;;15.93;;
23470;SDS011;11908;50.806;4.424;2023-02-22T04:05:55;22.33;;;16.27;;
23470;SDS011;11908;50.806;4.424;2023-02-22T04:08:21;23.50;;;16.67;;
23470;SDS011;11908;50.806;4.424;2023-02-22T04:10:47;22.92;;;16.77;;
23470;SDS011;11908;50.806;4.424;2023-02-22T04:13:13;23.92;;;16.08;;
23470;SDS011;11908;50.806;4.424;2023-02-22T04:15:39;26.60;;;16.60;;
23470;SDS011;11908;50.806;4.424;2023-02-22T04:18:04;23.80;;;16.83;;
23470;SDS011;11908;50.806;4.424;2023-02-22T04:20:30;25.42;;;16.70;;
23470;SDS011;11908;50.806;4.424;2023-02-22T04:22:56;24.33;;;16.73;;
23470;SDS011;11908;50.806;4.424;2023-02-22T04:25:22;21.83;;;15.88;;
23470;SDS011;11908;50.806;4.424;2023-02-22T04:27:48;28.15;;;17.05;;
23470;SDS011;11908;50.806;4.424;2023-02-22T04:30:15;23.20;;;15.38;;
23470;SDS011;11908;50.806;4.424;2023-02-22T04:32:42;21.80;;;16.02;;
23470;SDS011;11908;50.806;4.424;2023-02-22T04:35:08;21.90;;;15.57;;
23470;SDS011;11908;50.806;4.424;2023-02-22T04:37:34;20.60;;;14.60;;
23470;SDS011;11908;50.806;4.424;2023-02-22T04:40:01;21.13;;;15.05;;
23470;SDS011;11908;50.806;4.424;2023-02-22T04:42:31;21.63;;;15.40;;
23470;SDS011;11908;50.806;4.424;2023-02-22T04:44:57;22.08;;;14.93;;
23470;SDS011;11908;50.806;4.424;2023-02-22T04:47:22;22.05;;;13.98;;
23470;SDS011;11908;50.806;4.424;2023-02-22T04:49:48;22.27;;;15.90;;
23470;SDS011;11908;50.806;4.424;2023-02-22T04:52:14;21.30;;;14.35;;
23470;SDS011;11908;50.806;4.424;2023-02-22T04:54:39;20.55;;;14.82;;
23470;SDS011;11908;50.806;4.424;2023-02-22T04:57:05;21.00;;;14.82;;
23470;SDS011;11908;50.806;4.424;2023-02-22T04:59:31;20.48;;;14.75;;
23470;SDS011;11908;50.806;4.424;2023-02-22T05:01:57;19.40;;;14.50;;
23470;SDS011;11908;50.806;4.424;2023-02-22T05:04:24;20.33;;;14.63;;
23470;SDS011;11908;50.806;4.424;2023-02-22T05:06:50;20.85;;;14.50;;
23470;SDS011;11908;50.806;4.424;2023-02-22T05:09:16;21.48;;;15.40;;
23470;SDS011;11908;50.806;4.424;2023-02-22T05:11:41;18.90;;;13.57;;
23470;SDS011;11908;50.806;4.424;2023-02-22T05:14:07;18.27;;;13.63;;
23470;SDS011;11908;50.806;4.424;2023-02-22T05:16:33;21.27;;;13.98;;
23470;SDS011;11908;50.806;4.424;2023-02-22T05:18:59;20.40;;;14.07;;
23470;SDS011;11908;50.806;4.424;2023-02-22T05:21:25;19.77;;;14.50;;
23470;SDS011;11908;50.806;4.424;2023-02-22T05:23:51;21.50;;;14.07;;
23470;SDS011;11908;50.806;4.424;2023-02-22T05:26:16;18.40;;;14.38;;
23470;SDS011;11908;50.806;4.424;2023-02-22T05:28:43;21.83;;;15.18;;
23470;SDS011;11908;50.806;4.424;2023-02-22T05:31:08;22.13;;;15.73;;
23470;SDS011;11908;50.806;4.424;2023-02-22T05:33:34;20.05;;;15.23;;
23470;SDS011;11908;50.806;4.424;2023-02-22T05:36:00;18.70;;;14.13;;
23470;SDS011;11908;50.806;4.424;2023-02-22T05:38:25;20.42;;;14.27;;
23470;SDS011;11908;50.806;4.424;2023-02-22T05:40:51;20.25;;;14.15;;
23470;SDS011;11908;50.806;4.424;2023-02-22T05:43:17;19.88;;;14.50;;
23470;SDS011;11908;50.806;4.424;2023-02-22T05:45:43;20.65;;;13.48;;
23470;SDS011;11908;50.806;4.424;2023-02-22T05:48:08;21.67;;;14.63;;
23470;SDS011;11908;50.806;4.424;2023-02-22T05:50:34;26.83;;;15.63;;
23470;SDS011;11908;50.806;4.424;2023-02-22T05:53:00;24.52;;;14.73;;
23470;SDS011;11908;50.806;4.424;2023-02-22T05:55:26;20.80;;;15.10;;
23470;SDS011;11908;50.806;4.424;2023-02-22T05:57:51;20.15;;;14.60;;
23470;SDS011;11908;50.806;4.424;2023-02-22T06:00:22;19.60;;;14.45;;
23470;SDS011;11908;50.806;4.424;2023-02-22T06:02:57;19.13;;;14.20;;
23470;SDS011;11908;50.806;4.424;2023-02-22T06:05:25;20.85;;;14.13;;
23470;SDS011;11908;50.806;4.424;2023-02-22T06:07:51;19.13;;;13.57;;
23470;SDS011;11908;50.806;4.424;2023-02-22T06:10:17;17.55;;;13.73;;
23470;SDS011;11908;50.806;4.424;2023-02-22T06:12:44;16.88;;;12.30;;
23470;SDS011;11908;50.806;4.424;2023-02-22T06:15:10;17.73;;;13.50;;
23470;SDS011;11908;50.806;4.424;2023-02-22T06:17:36;18.70;;;13.65;;
23470;SDS011;11908;50.806;4.424;2023-02-22T06:20:03;19.42;;;14.25;;
23470;SDS011;11908;50.806;4.424;2023-02-22T06:22:29;18.40;;;13.77;;
23470;SDS011;11908;50.806;4.424;2023-02-22T06:24:55;19.77;;;14.00;;
23470;SDS011;11908;50.806;4.424;2023-02-22T06:27:20;18.83;;;13.25;;
23470;SDS011;11908;50.806;4.424;2023-02-22T06:29:46;17.83;;;12.55;;
23470;SDS011;11908;50.806;4.424;2023-02-22T06:32:12;21.85;;;15.13;;
23470;SDS011;11908;50.806;4.424;2023-02-22T06:34:38;18.30;;;13.85;;
23470;SDS011;11908;50.806;4.424;2023-02-22T06:37:05;18.35;;;13.38;;
23470;SDS011;11908;50.806;4.424;2023-02-22T06:39:31;21.85;;;14.00;;
23470;SDS011;11908;50.806;4.424;2023-02-22T06:41:58;19.88;;;13.18;;
23470;SDS011;11908;50.806;4.424;2023-02-22T06:44:24;18.10;;;12.88;;
23470;SDS011;11908;50.806;4.424;2023-02-22T06:46:50;19.10;;;12.95;;
23470;SDS011;11908;50.806;4.424;2023-02-22T06:49:16;17.92;;;12.77;;
23470;SDS011;11908;50.806;4.424;2023-02-22T06:51:42;18.13;;;13.18;;
23470;SDS011;11908;50.806;4.424;2023-02-22T06:54:08;26.92;;;13.80;;
23470;SDS011;11908;50.806;4.424;2023-02-22T06:56:33;20.05;;;13.63;;
23470;SDS011;11908;50.806;4.424;2023-02-22T06:58:59;31.35;;;13.80;;
23470;SDS011;11908;50.806;4.424;2023-02-22T07:01:28;22.80;;;13.35;;
23470;SDS011;11908;50.806;4.424;2023-02-22T07:03:54;24.00;;;14.75;;
23470;SDS011;11908;50.806;4.424;2023-02-22T07:06:19;26.65;;;13.88;;
23470;SDS011;11908;50.806;4.424;2023-02-22T07:08:45;25.20;;;13.50;;
23470;SDS011;11908;50.806;4.424;2023-02-22T07:11:11;29.33;;;13.82;;
23470;SDS011;11908;50.806;4.424;2023-02-22T07:13:37;22.17;;;15.23;;
23470;SDS011;11908;50.806;4.424;2023-02-22T07:16:03;20.88;;;14.48;;
23470;SDS011;11908;50.806;4.424;2023-02-22T07:18:29;34.00;;;14.90;;
23470;SDS011;11908;50.806;4.424;2023-02-22T07:20:55;60.15;;;29.38;;
23470;SDS011;11908;50.806;4.424;2023-02-22T07:23:22;52.78;;;23.75;;
23470;SDS011;11908;50.806;4.424;2023-02-22T07:25:48;49.60;;;21.20;;
23470;SDS011;11908;50.806;4.424;2023-02-22T07:28:14;34.88;;;17.85;;
23470;SDS011;11908;50.806;4.424;2023-02-22T07:30:40;22.98;;;14.13;;
23470;SDS011;11908;50.806;4.424;2023-02-22T07:33:07;20.73;;;14.48;;
23470;SDS011;11908;50.806;4.424;2023-02-22T07:35:35;20.23;;;13.40;;
23470;SDS011;11908;50.806;4.424;2023-02-22T07:38:06;26.63;;;13.57;;
23470;SDS011;11908;50.806;4.424;2023-02-22T07:40:32;26.00;;;12.88;;
23470;SDS011;11908;50.806;4.424;2023-02-22T07:43:01;31.23;;;13.52;;
23470;SDS011;11908;50.806;4.424;2023-02-22T07:45:28;32.97;;;14.15;;
23470;SDS011;11908;50.806;4.424;2023-02-22T07:47:55;30.15;;;13.70;;
23470;SDS011;11908;50.806;4.424;2023-02-22T07:50:22;25.10;;;14.20;;
23470;SDS011;11908;50.806;4.424;2023-02-22T07:52:49;26.02;;;13.80;;
23470;SDS011;11908;50.806;4.424;2023-02-22T07:55:18;21.13;;;13.80;;
23470;SDS011;11908;50.806;4.424;2023-02-22T07:57:45;23.30;;;13.68;;
23470;SDS011;11908;50.806;4.424;2023-02-22T08:00:12;22.17;;;13.20;;
23470;SDS011;11908;50.806;4.424;2023-02-22T08:02:40;19.08;;;11.88;;
23470;SDS011;11908;50.806;4.424;2023-02-22T08:05:07;18.58;;;12.35;;
23470;SDS011;11908;50.806;4.424;2023-02-22T08:07:35;19.73;;;11.90;;
23470;SDS011;11908;50.806;4.424;2023-02-22T08:10:01;22.15;;;11.60;;
23470;SDS011;11908;50.806;4.424;2023-02-22T08:12:30;17.35;;;11.90;;
23470;SDS011;11908;50.806;4.424;2023-02-22T08:14:57;24.35;;;12.32;;
23470;SDS011;11908;50.806;4.424;2023-02-22T08:17:22;19.33;;;11.13;;
23470;SDS011;11908;50.806;4.424;2023-02-22T08:19:48;16.83;;;11.30;;
23470;SDS011;11908;50.806;4.424;2023-02-22T08:22:14;17.63;;;11.52;;
23470;SDS011;11908;50.806;4.424;2023-02-22T08:24:40;22.05;;;12.07;;
23470;SDS011;11908;50.806;4.424;2023-02-22T08:27:05;18.17;;;11.25;;
23470;SDS011;11908;50.806;4.424;2023-02-22T08:29:31;19.35;;;11.20;;
23470;SDS011;11908;50.806;4.424;2023-02-22T08:31:58;23.95;;;11.90;;
23470;SDS011;11908;50.806;4.424;2023-02-22T08:34:24;19.83;;;11.95;;
23470;SDS011;11908;50.806;4.424;2023-02-22T08:36:51;20.90;;;11.82;;
23470;SDS011;11908;50.806;4.424;2023-02-22T08:39:16;22.90;;;11.93;;
23470;SDS011;11908;50.806;4.424;2023-02-22T08:41:42;19.73;;;11.40;;
23470;SDS011;11908;50.806;4.424;2023-02-22T08:44:08;20.65;;;11.43;;
23470;SDS011;11908;50.806;4.424;2023-02-22T08:46:33;21.42;;;11.63;;
23470;SDS011;11908;50.806;4.424;2023-02-22T08:48:59;22.20;;;10.90;;
23470;SDS011;11908;50.806;4.424;2023-02-22T08:51:25;23.27;;;11.40;;
23470;SDS011;11908;50.806;4.424;2023-02-22T08:53:51;25.83;;;11.57;;
23470;SDS011;11908;50.806;4.424;2023-02-22T08:56:17;22.75;;;11.70;;
23470;SDS011;11908;50.806;4.424;2023-02-22T08:58:43;29.73;;;11.88;;
23470;SDS011;11908;50.806;4.424;2023-02-22T09:01:09;23.95;;;11.35;;
23470;SDS011;11908;50.806;4.424;2023-02-22T09:03:34;23.27;;;12.13;;
23470;SDS011;11908;50.806;4.424;2023-02-22T09:06:00;24.73;;;11.45;;
23470;SDS011;11908;50.806;4.424;2023-02-22T09:08:26;20.33;;;11.48;;
23470;SDS011;11908;50.806;4.424;2023-02-22T09:10:51;19.50;;;11.38;;
23470;SDS011;11908;50.806;4.424;2023-02-22T09:13:17;20.08;;;11.25;;
23470;SDS011;11908;50.806;4.424;2023-02-22T09:15:43;19.50;;;11.43;;
23470;SDS011;11908;50.806;4.424;2023-02-22T09:18:14;20.33;;;12.07;;
23470;SDS011;11908;50.806;4.424;2023-02-22T09:20:42;25.25;;;11.70;;
23470;SDS011;11908;50.806;4.424;2023-02-22T09:23:08;18.83;;;12.43;;
23470;SDS011;11908;50.806;4.424;2023-02-22T09:25:34;22.42;;;13.02;;
23470;SDS011;11908;50.806;4.424;2023-02-22T09:28:00;22.17;;;12.95;;
23470;SDS011;11908;50.806;4.424;2023-02-22T09:30:30;25.52;;;14.45;;
23470;SDS011;11908;50.806;4.424;2023-02-22T09:33:01;21.00;;;14.32;;
23470;SDS011;11908;50.806;4.424;2023-02-22T09:35:29;20.90;;;13.40;;
23470;SDS011;11908;50.806;4.424;2023-02-22T09:37:55;25.08;;;15.52;;
23470;SDS011;11908;50.806;4.424;2023-02-22T09:40:28;21.30;;;13.55;;
23470;SDS011;11908;50.806;4.424;2023-02-22T09:48:57;20.98;;;14.45;;
23470;SDS011;11908;50.806;4.424;2023-02-22T09:51:25;25.30;;;13.95;;
23470;SDS011;11908;50.806;4.424;2023-02-22T09:53:59;24.60;;;14.30;;
23470;SDS011;11908;50.806;4.424;2023-02-22T09:56:30;22.95;;;14.48;;
23470;SDS011;11908;50.806;4.424;2023-02-22T09:59:01;23.25;;;15.70;;
23470;SDS011;11908;50.806;4.424;2023-02-22T10:06:43;24.65;;;14.82;;
23470;SDS011;11908;50.806;4.424;2023-02-22T10:09:33;26.63;;;15.85;;
23470;SDS011;11908;50.806;4.424;2023-02-22T10:12:08;23.98;;;15.27;;
23470;SDS011;11908;50.806;4.424;2023-02-22T10:14:47;24.38;;;15.55;;
23470;SDS011;11908;50.806;4.424;2023-02-22T10:25:19;25.00;;;15.82;;
23470;SDS011;11908;50.806;4.424;2023-02-22T10:30:27;23.05;;;15.93;;
23470;SDS011;11908;50.806;4.424;2023-02-22T10:33:03;23.08;;;17.20;;
23470;SDS011;11908;50.806;4.424;2023-02-22T10:35:36;21.98;;;16.35;;
23470;SDS011;11908;50.806;4.424;2023-02-22T10:40:48;24.98;;;16.45;;
23470;SDS011;11908;50.806;4.424;2023-02-22T10:43:20;24.75;;;16.98;;
23470;SDS011;11908;50.806;4.424;2023-02-22T10:45:47;23.95;;;16.25;;
23470;SDS011;11908;50.806;4.424;2023-02-22T10:48:17;26.23;;;17.75;;
23470;SDS011;11908;50.806;4.424;2023-02-22T10:50:45;28.60;;;18.25;;
23470;SDS011;11908;50.806;4.424;2023-02-22T10:53:12;25.45;;;18.08;;
23470;SDS011;11908;50.806;4.424;2023-02-22T10:58:41;30.00;;;18.05;;
23470;SDS011;11908;50.806;4.424;2023-02-22T11:01:21;25.50;;;18.73;;
23470;SDS011;11908;50.806;4.424;2023-02-22T11:04:09;28.55;;;18.90;;
23470;SDS011;11908;50.806;4.424;2023-02-22T11:06:38;27.02;;;19.83;;
23470;SDS011;11908;50.806;4.424;2023-02-22T11:09:06;27.33;;;19.50;;
23470;SDS011;11908;50.806;4.424;2023-02-22T11:11:35;30.17;;;19.38;;
23470;SDS011;11908;50.806;4.424;2023-02-22T11:14:02;27.13;;;19.38;;
23470;SDS011;11908;50.806;4.424;2023-02-22T11:16:31;27.52;;;19.05;;
23470;SDS011;11908;50.806;4.424;2023-02-22T11:19:17;27.70;;;18.98;;
23470;SDS011;11908;50.806;4.424;2023-02-22T11:21:47;24.10;;;18.33;;
23470;SDS011;11908;50.806;4.424;2023-02-22T11:24:21;29.17;;;19.30;;
23470;SDS011;11908;50.806;4.424;2023-02-22T11:26:49;28.38;;;20.92;;
23470;SDS011;11908;50.806;4.424;2023-02-22T11:29:32;25.40;;;19.27;;
23470;SDS011;11908;50.806;4.424;2023-02-22T11:32:02;25.85;;;18.25;;
23470;SDS011;11908;50.806;4.424;2023-02-22T11:34:39;25.20;;;19.35;;
23470;SDS011;11908;50.806;4.424;2023-02-22T11:39:47;31.30;;;22.50;;
23470;SDS011;11908;50.806;4.424;2023-02-22T11:42:27;30.85;;;20.33;;
23470;SDS011;11908;50.806;4.424;2023-02-22T11:47:49;26.02;;;19.23;;
23470;SDS011;11908;50.806;4.424;2023-02-22T11:53:04;86.85;;;22.00;;
23470;SDS011;11908;50.806;4.424;2023-02-22T11:58:59;40.90;;;20.25;;
23470;SDS011;11908;50.806;4.424;2023-02-22T12:02:13;28.55;;;20.83;;
23470;SDS011;11908;50.806;4.424;2023-02-22T12:10:11;42.05;;;22.58;;
23470;SDS011;11908;50.806;4.424;2023-02-22T12:18:34;35.85;;;21.38;;
23470;SDS011;11908;50.806;4.424;2023-02-22T12:21:08;34.83;;;21.13;;
23470;SDS011;11908;50.806;4.424;2023-02-22T12:23:49;31.15;;;21.95;;
23470;SDS011;11908;50.806;4.424;2023-02-22T12:26:24;41.92;;;22.15;;
23470;SDS011;11908;50.806;4.424;2023-02-22T12:31:45;30.08;;;21.00;;
23470;SDS011;11908;50.806;4.424;2023-02-22T12:37:03;29.67;;;20.60;;
23470;SDS011;11908;50.806;4.424;2023-02-22T12:39:48;49.25;;;21.10;;
23470;SDS011;11908;50.806;4.424;2023-02-22T12:45:25;40.53;;;21.42;;
23470;SDS011;11908;50.806;4.424;2023-02-22T12:50:55;60.63;;;22.98;;
23470;SDS011;11908;50.806;4.424;2023-02-22T12:53:32;55.00;;;23.40;;
23470;SDS011;11908;50.806;4.424;2023-02-22T12:56:12;56.57;;;23.27;;
23470;SDS011;11908;50.806;4.424;2023-02-22T12:58:56;54.88;;;24.00;;
23470;SDS011;11908;50.806;4.424;2023-02-22T13:01:29;40.30;;;24.63;;
23470;SDS011;11908;50.806;4.424;2023-02-22T13:04:01;50.20;;;24.80;;
23470;SDS011;11908;50.806;4.424;2023-02-22T13:14:49;38.33;;;25.02;;
23470;SDS011;11908;50.806;4.424;2023-02-22T13:20:38;34.72;;;23.75;;
23470;SDS011;11908;50.806;4.424;2023-02-22T13:25:56;36.17;;;25.98;;
23470;SDS011;11908;50.806;4.424;2023-02-22T13:28:34;34.47;;;25.50;;
23470;SDS011;11908;50.806;4.424;2023-02-22T13:48:07;38.33;;;26.70;;
23470;SDS011;11908;50.806;4.424;2023-02-22T13:50:32;37.05;;;27.33;;
23470;SDS011;11908;50.806;4.424;2023-02-22T13:53:22;39.22;;;29.77;;
23470;SDS011;11908;50.806;4.424;2023-02-22T13:55:57;38.72;;;29.08;;
23470;SDS011;11908;50.806;4.424;2023-02-22T13:58:25;41.40;;;27.90;;
23470;SDS011;11908;50.806;4.424;2023-02-22T14:00:52;38.17;;;28.17;;
23470;SDS011;11908;50.806;4.424;2023-02-22T14:06:08;37.13;;;26.95;;
23470;SDS011;11908;50.806;4.424;2023-02-22T14:08:54;38.22;;;27.77;;
23470;SDS011;11908;50.806;4.424;2023-02-22T14:16:23;42.70;;;29.45;;
23470;SDS011;11908;50.806;4.424;2023-02-22T14:19:03;44.22;;;30.27;;
23470;SDS011;11908;50.806;4.424;2023-02-22T14:22:00;42.17;;;28.85;;
23470;SDS011;11908;50.806;4.424;2023-02-22T14:24:48;41.50;;;30.85;;
23470;SDS011;11908;50.806;4.424;2023-02-22T14:27:15;41.60;;;31.10;;
23470;SDS011;11908;50.806;4.424;2023-02-22T14:29:48;43.78;;;32.17;;
23470;SDS011;11908;50.806;4.424;2023-02-22T14:32:19;47.58;;;32.92;;
23470;SDS011;11908;50.806;4.424;2023-02-22T14:34:58;46.38;;;31.98;;
23470;SDS011;11908;50.806;4.424;2023-02-22T14:42:46;45.63;;;32.25;;
23470;SDS011;11908;50.806;4.424;2023-02-22T14:50:41;57.97;;;34.75;;
23470;SDS011;11908;50.806;4.424;2023-02-22T14:55:40;52.30;;;34.70;;
23470;SDS011;11908;50.806;4.424;2023-02-22T14:58:19;60.05;;;36.53;;
23470;SDS011;11908;50.806;4.424;2023-02-22T15:00:52;57.50;;;35.65;;
23470;SDS011;11908;50.806;4.424;2023-02-22T15:05:46;56.63;;;37.17;;
23470;SDS011;11908;50.806;4.424;2023-02-22T15:08:14;51.60;;;35.22;;
23470;SDS011;11908;50.806;4.424;2023-02-22T15:10:42;46.80;;;34.38;;
23470;SDS011;11908;50.806;4.424;2023-02-22T15:13:15;52.92;;;34.92;;
23470;SDS011;11908;50.806;4.424;2023-02-22T15:18:25;66.53;;;37.65;;
23470;SDS011;11908;50.806;4.424;2023-02-22T15:21:02;65.78;;;38.13;;
23470;SDS011;11908;50.806;4.424;2023-02-22T15:23:39;61.25;;;36.65;;
23470;SDS011;11908;50.806;4.424;2023-02-22T15:26:06;56.30;;;37.30;;
23470;SDS011;11908;50.806;4.424;2023-02-22T15:28:32;52.75;;;36.15;;
23470;SDS011;11908;50.806;4.424;2023-02-22T15:31:13;52.63;;;36.92;;
23470;SDS011;11908;50.806;4.424;2023-02-22T15:33:40;54.55;;;38.90;;
23470;SDS011;11908;50.806;4.424;2023-02-22T15:36:11;58.28;;;36.67;;
23470;SDS011;11908;50.806;4.424;2023-02-22T15:38:40;55.28;;;37.60;;
23470;SDS011;11908;50.806;4.424;2023-02-22T15:41:18;52.60;;;35.90;;
23470;SDS011;11908;50.806;4.424;2023-02-22T15:43:58;54.33;;;36.00;;
23470;SDS011;11908;50.806;4.424;2023-02-22T15:46:29;50.35;;;34.25;;
23470;SDS011;11908;50.806;4.424;2023-02-22T15:54:06;46.85;;;30.88;;
23470;SDS011;11908;50.806;4.424;2023-02-22T15:56:39;45.70;;;30.63;;
23470;SDS011;11908;50.806;4.424;2023-02-22T15:59:15;47.15;;;30.83;;
23470;SDS011;11908;50.806;4.424;2023-02-22T16:01:43;48.42;;;31.00;;
23470;SDS011;11908;50.806;4.424;2023-02-22T16:04:23;43.90;;;30.30;;
23470;SDS011;11908;50.806;4.424;2023-02-22T16:07:06;46.33;;;31.95;;
23470;SDS011;11908;50.806;4.424;2023-02-22T16:09:44;46.53;;;32.00;;
23470;SDS011;11908;50.806;4.424;2023-02-22T16:14:44;55.10;;;31.98;;
23470;SDS011;11908;50.806;4.424;2023-02-22T16:22:38;46.90;;;30.83;;
23470;SDS011;11908;50.806;4.424;2023-02-22T16:25:12;48.53;;;32.70;;
23470;SDS011;11908;50.806;4.424;2023-02-22T16:27:47;53.72;;;32.10;;
23470;SDS011;11908;50.806;4.424;2023-02-22T16:32:42;51.05;;;33.15;;
23470;SDS011;11908;50.806;4.424;2023-02-22T16:35:08;54.35;;;34.25;;
23470;SDS011;11908;50.806;4.424;2023-02-22T16:37:51;56.17;;;33.97;;
23470;SDS011;11908;50.806;4.424;2023-02-22T16:40:31;57.22;;;35.45;;
23470;SDS011;11908;50.806;4.424;2023-02-22T16:43:02;58.80;;;35.25;;
23470;SDS011;11908;50.806;4.424;2023-02-22T16:45:29;57.85;;;36.45;;
23470;SDS011;11908;50.806;4.424;2023-02-22T16:47:55;59.58;;;35.85;;
23470;SDS011;11908;50.806;4.424;2023-02-22T16:50:22;58.13;;;36.45;;
23470;SDS011;11908;50.806;4.424;2023-02-22T16:52:49;62.88;;;37.10;;
23470;SDS011;11908;50.806;4.424;2023-02-22T16:55:17;58.35;;;35.05;;
23470;SDS011;11908;50.806;4.424;2023-02-22T16:57:44;60.95;;;36.97;;
23470;SDS011;11908;50.806;4.424;2023-02-22T17:00:18;59.95;;;36.92;;
23470;SDS011;11908;50.806;4.424;2023-02-22T17:02:55;66.05;;;36.67;;
23470;SDS011;11908;50.806;4.424;2023-02-22T17:05:30;62.20;;;37.53;;
23470;SDS011;11908;50.806;4.424;2023-02-22T17:08:01;65.55;;;38.63;;
23470;SDS011;11908;50.806;4.424;2023-02-22T17:10:30;67.70;;;39.17;;
23470;SDS011;11908;50.806;4.424;2023-02-22T17:12:56;70.28;;;40.40;;
23470;SDS011;11908;50.806;4.424;2023-02-22T17:15:28;65.72;;;36.88;;
23470;SDS011;11908;50.806;4.424;2023-02-22T17:17:56;71.38;;;40.42;;
23470;SDS011;11908;50.806;4.424;2023-02-22T17:20:22;71.75;;;39.25;;
23470;SDS011;11908;50.806;4.424;2023-02-22T17:22:58;83.30;;;41.30;;
23470;SDS011;11908;50.806;4.424;2023-02-22T17:25:27;72.20;;;40.10;;
23470;SDS011;11908;50.806;4.424;2023-02-22T17:27:56;69.78;;;39.28;;
23470;SDS011;11908;50.806;4.424;2023-02-22T17:30:21;73.30;;;41.03;;